createdAt,value
2018-05-07T00:00:04.437Z,63.10
2018-05-07T00:02:32.717Z,63.30
2018-05-07T00:05:01.002Z,63.40
2018-05-07T00:07:29.271Z,63.80
2018-05-07T00:09:57.560Z,64.10
2018-05-07T00:12:25.842Z,64.10
2018-05-07T00:14:53.356Z,64.00
2018-05-07T00:17:20.857Z,64.60
2018-05-07T00:19:48.361Z,64.70
2018-05-07T00:22:15.866Z,64.80
2018-05-07T00:24:44.134Z,65.80
2018-05-07T00:27:12.400Z,66.50
2018-05-07T00:29:39.929Z,65.70
2018-05-07T00:32:07.434Z,66.20
2018-05-07T00:34:34.969Z,66.50
2018-05-07T00:37:02.492Z,66.60
2018-05-07T00:39:30.026Z,66.70
2018-05-07T00:41:57.531Z,66.90
2018-05-07T00:44:25.055Z,67.30
2018-05-07T00:46:52.590Z,67.30
2018-05-07T00:49:21.374Z,67.30
2018-05-07T00:51:49.694Z,67.90
2018-05-07T00:54:17.216Z,67.90
2018-05-07T00:56:44.739Z,68.20
2018-05-07T00:59:12.253Z,68.30
2018-05-07T01:01:39.756Z,68.60
2018-05-07T01:04:07.299Z,68.80
2018-05-07T01:06:34.813Z,68.90
2018-05-07T01:09:03.086Z,69.70
2018-05-07T01:11:31.369Z,69.70
2018-05-07T01:13:59.640Z,70.10
2018-05-07T01:16:27.243Z,70.00
2018-05-07T01:18:54.764Z,70.20
2018-05-07T01:21:23.042Z,71.10
2018-05-07T01:23:51.314Z,70.50
2018-05-07T01:26:18.837Z,70.50
2018-05-07T01:28:46.337Z,70.60
2018-05-07T01:31:13.864Z,70.90
2018-05-07T01:33:41.395Z,71.20
2018-05-07T01:36:08.909Z,71.60
2018-05-07T01:38:36.445Z,71.80
2018-05-07T01:41:04.754Z,72.30
2018-05-07T01:43:33.023Z,72.60
2018-05-07T01:46:00.549Z,72.60
2018-05-07T01:48:28.124Z,73.00
2018-05-07T01:50:55.626Z,73.10
2018-05-07T01:53:23.893Z,73.30
2018-05-07T01:55:52.185Z,73.30
2018-05-07T01:58:19.710Z,73.30
2018-05-07T02:00:47.229Z,73.80
2018-05-07T02:03:14.730Z,73.80
2018-05-07T02:05:43.052Z,74.10
2018-05-07T02:08:10.576Z,74.10
2018-05-07T02:10:38.104Z,74.40
2018-05-07T02:13:05.605Z,75.00
2018-05-07T02:15:33.982Z,75.30
2018-05-07T02:18:01.522Z,75.30
2018-05-07T02:20:29.057Z,75.60
2018-05-07T02:22:56.573Z,75.70
2018-05-07T02:25:24.083Z,75.80
2018-05-07T02:27:51.584Z,75.50
2018-05-07T02:30:19.857Z,75.20
2018-05-07T02:32:48.250Z,74.90
2018-05-07T02:35:15.876Z,74.90
2018-05-07T02:37:43.396Z,74.70
2018-05-07T02:40:11.040Z,74.90
2018-05-07T02:42:38.538Z,74.80
2018-05-07T02:45:06.052Z,74.80
2018-05-07T02:47:33.563Z,74.70
2018-05-07T02:50:01.090Z,74.90
2018-05-07T02:52:28.628Z,75.10
2018-05-07T02:54:56.146Z,75.40
2018-05-07T02:57:23.660Z,75.70
2018-05-07T02:59:51.207Z,75.70
2018-05-07T03:02:19.496Z,76.00
2018-05-07T03:04:47.011Z,76.00
2018-05-07T03:07:14.531Z,75.90
2018-05-07T03:09:42.039Z,76.20
2018-05-07T03:12:10.410Z,76.30
2018-05-07T03:14:38.628Z,76.80
2018-05-07T03:17:06.122Z,76.70
2018-05-07T03:19:33.627Z,76.80
2018-05-07T03:22:01.197Z,76.90
2018-05-07T03:24:28.689Z,77.20
2018-05-07T03:26:56.224Z,77.60
2018-05-07T03:29:23.762Z,78.60
2018-05-07T03:31:52.036Z,78.20
2018-05-07T03:34:20.329Z,78.40
2018-05-07T03:36:47.849Z,78.30
2018-05-07T03:39:15.375Z,78.20
2018-05-07T03:41:42.868Z,78.50
2018-05-07T03:44:10.359Z,78.60
2018-05-07T03:46:38.617Z,78.80
2018-05-07T03:49:06.891Z,78.00
2018-05-07T03:51:34.432Z,78.80
2018-05-07T03:54:01.948Z,79.60
2018-05-07T03:56:29.454Z,79.30
2018-05-07T03:58:56.986Z,79.50
2018-05-07T04:01:24.503Z,79.50
2018-05-07T04:03:52.027Z,79.70
2018-05-07T04:06:19.534Z,79.90
2018-05-07T04:08:47.033Z,80.10
2018-05-07T04:11:14.595Z,80.10
2018-05-07T04:13:42.103Z,80.80
2018-05-07T04:16:11.204Z,81.10
2018-05-07T04:18:59.558Z,81.00
2018-05-07T04:21:27.070Z,80.80
2018-05-07T04:24:04.547Z,81.00
2018-05-07T04:26:32.088Z,81.40
2018-05-07T04:28:59.590Z,81.70
2018-05-07T04:31:27.091Z,81.80
2018-05-07T04:33:54.621Z,82.00
2018-05-07T04:36:22.139Z,82.20
2018-05-07T04:38:49.672Z,82.30
2018-05-07T04:41:17.198Z,82.50
2018-05-07T04:43:44.714Z,82.50
2018-05-07T04:46:13.004Z,82.40
2018-05-07T04:48:40.536Z,82.40
2018-05-07T04:51:08.036Z,82.10
2018-05-07T04:53:35.631Z,81.80
2018-05-07T04:56:03.936Z,81.50
2018-05-07T04:58:31.451Z,81.50
2018-05-07T05:00:58.970Z,81.30
2018-05-07T05:03:26.493Z,81.20
2018-05-07T05:05:54.010Z,81.00
2018-05-07T05:08:21.512Z,80.90
2018-05-07T05:10:49.024Z,81.00
2018-05-07T05:13:16.562Z,80.80
2018-05-07T05:15:44.070Z,80.70
2018-05-07T05:18:11.589Z,80.40
2018-05-07T05:20:39.133Z,80.10
2018-05-07T05:23:06.669Z,79.90
2018-05-07T05:25:34.268Z,79.70
2018-05-07T05:28:01.853Z,78.80
2018-05-07T05:30:29.364Z,78.40
2018-05-07T05:32:56.880Z,77.40
2018-05-07T05:35:24.514Z,76.80
2018-05-07T05:37:52.034Z,76.90
2018-05-07T05:40:19.550Z,76.10
2018-05-07T05:42:47.054Z,75.70
2018-05-07T05:45:14.583Z,76.00
2018-05-07T05:47:42.876Z,75.20
2018-05-07T05:50:10.518Z,75.10
2018-05-07T05:52:37.929Z,74.60
2018-05-07T05:55:05.442Z,74.20
2018-05-07T05:57:32.973Z,73.90
2018-05-07T06:00:00.492Z,73.80
2018-05-07T06:02:28.027Z,73.30
2018-05-07T06:04:55.552Z,72.90
2018-05-07T06:07:23.077Z,72.50
2018-05-07T06:09:50.587Z,71.80
2018-05-07T06:12:18.136Z,72.20
2018-05-07T06:14:45.725Z,71.50
2018-05-07T06:17:13.172Z,71.40
2018-05-07T06:19:40.697Z,70.70
2018-05-07T06:22:08.237Z,71.20
2018-05-07T06:24:35.769Z,70.70
2018-05-07T06:27:04.034Z,69.70
2018-05-07T06:29:31.644Z,69.70
2018-05-07T06:31:59.154Z,68.90
2018-05-07T06:34:26.711Z,69.20
2018-05-07T06:36:54.211Z,68.70
2018-05-07T06:39:21.729Z,68.70
2018-05-07T06:41:49.234Z,68.40
2018-05-07T06:44:16.764Z,68.10
2018-05-07T06:46:45.063Z,67.20
2018-05-07T06:49:12.582Z,67.20
2018-05-07T06:51:40.120Z,67.10
2018-05-07T06:54:07.648Z,66.80
2018-05-07T06:56:35.219Z,67.60
2018-05-07T06:59:02.936Z,67.60
2018-05-07T07:01:31.211Z,68.00
2018-05-07T07:03:59.498Z,67.40
2018-05-07T07:06:27.036Z,67.30
2018-05-07T07:08:54.571Z,67.00
2018-05-07T07:11:22.077Z,68.10
2018-05-07T07:13:50.400Z,67.00
2018-05-07T07:16:17.951Z,67.00
2018-05-07T07:18:45.688Z,66.70
2018-05-07T07:21:13.206Z,66.80
2018-05-07T07:23:40.707Z,67.00
2018-05-07T07:26:08.203Z,64.10
2018-05-07T07:28:35.721Z,64.40
2018-05-07T07:31:03.236Z,64.80
2018-05-07T07:33:30.886Z,62.90
2018-05-07T07:35:58.403Z,62.70
2018-05-07T07:38:25.907Z,60.50
2018-05-07T07:40:53.448Z,59.60
2018-05-07T07:43:20.974Z,59.70
2018-05-07T07:45:48.508Z,59.00
2018-05-07T07:48:16.021Z,58.00
2018-05-07T07:50:43.516Z,57.60
2018-05-07T07:53:11.081Z,57.20
2018-05-07T07:55:38.627Z,57.20
2018-05-07T07:58:06.224Z,57.90
2018-05-07T08:00:34.488Z,56.80
2018-05-07T08:03:02.018Z,56.70
2018-05-07T08:05:29.526Z,56.70
2018-05-07T08:07:57.045Z,56.40
2018-05-07T08:10:24.615Z,56.40
2018-05-07T08:12:52.106Z,56.20
2018-05-07T08:15:19.801Z,56.40
2018-05-07T08:17:47.300Z,56.30
2018-05-07T08:20:14.972Z,56.60
2018-05-07T08:22:42.488Z,56.50
2018-05-07T08:25:10.023Z,56.30
2018-05-07T08:27:37.584Z,55.70
2018-05-07T08:30:05.088Z,55.40
2018-05-07T08:32:32.612Z,55.20
2018-05-07T08:35:00.265Z,54.90
2018-05-07T08:37:27.777Z,54.90
2018-05-07T08:39:55.291Z,55.00
2018-05-07T08:42:22.941Z,54.90
2018-05-07T08:44:50.488Z,54.60
2018-05-07T08:47:18.042Z,54.80
2018-05-07T08:49:46.340Z,54.70
2018-05-07T08:52:13.861Z,54.70
2018-05-07T08:54:41.405Z,54.20
2018-05-07T08:57:08.920Z,54.40
2018-05-07T08:59:36.474Z,54.10
2018-05-07T09:02:04.182Z,54.40
2018-05-07T09:04:31.641Z,54.20
2018-05-07T09:06:59.187Z,53.60
2018-05-07T09:09:26.751Z,53.60
2018-05-07T09:11:54.403Z,53.90
2018-05-07T09:14:21.917Z,53.10
2018-05-07T09:16:50.221Z,53.80
2018-05-07T09:19:17.842Z,53.80
2018-05-07T09:21:45.387Z,53.70
2018-05-07T09:24:12.901Z,53.50
2018-05-07T09:26:40.494Z,53.30
2018-05-07T09:29:08.014Z,53.60
2018-05-07T09:31:35.549Z,53.20
2018-05-07T09:34:03.907Z,52.90
2018-05-07T09:36:31.485Z,52.80
2018-05-07T09:38:59.023Z,52.60
2018-05-07T09:41:26.551Z,52.30
2018-05-07T09:43:54.101Z,52.50
2018-05-07T09:46:21.639Z,52.60
2018-05-07T09:48:49.180Z,52.70
2018-05-07T09:51:16.702Z,52.50
2018-05-07T09:53:44.723Z,51.60
2018-05-07T09:56:12.213Z,51.20
2018-05-07T09:58:57.169Z,51.20
2018-05-07T10:01:25.501Z,49.90
2018-05-07T10:03:53.003Z,49.80
2018-05-07T10:06:20.529Z,49.20
2018-05-07T10:08:48.042Z,48.70
2018-05-07T10:11:15.629Z,47.90
2018-05-07T10:13:43.165Z,47.30
2018-05-07T10:16:10.681Z,47.00
2018-05-07T10:18:38.989Z,46.70
2018-05-07T10:21:06.508Z,46.60
2018-05-07T10:23:34.057Z,46.50
2018-05-07T10:26:01.549Z,46.20
2018-05-07T10:28:29.813Z,44.80
2018-05-07T10:30:57.325Z,44.80
2018-05-07T10:33:24.864Z,44.70
2018-05-07T10:35:52.369Z,43.10
2018-05-07T10:38:19.950Z,40.60
2018-05-07T10:40:47.461Z,37.90
2018-05-07T10:43:14.966Z,35.90
2018-05-07T10:45:42.481Z,34.40
2018-05-07T10:48:10.040Z,32.10
2018-05-07T10:50:37.558Z,30.30
2018-05-07T10:53:05.841Z,29.70
2018-05-07T10:55:34.166Z,29.60
2018-05-07T10:58:01.708Z,29.60
2018-05-07T11:00:29.347Z,29.60
2018-05-07T11:02:56.920Z,28.20
2018-05-07T11:05:24.467Z,28.60
2018-05-07T11:07:51.964Z,28.80
2018-05-07T11:10:19.495Z,28.20
2018-05-07T11:12:47.104Z,27.50
2018-05-07T11:15:14.584Z,27.90
2018-05-07T11:17:42.938Z,27.10
2018-05-07T11:20:10.454Z,27.10
2018-05-07T11:22:38.001Z,26.00
2018-05-07T11:25:06.275Z,25.60
2018-05-07T11:27:34.593Z,25.90
2018-05-07T11:30:02.143Z,25.80
2018-05-07T11:32:29.653Z,25.50
2018-05-07T11:34:57.160Z,24.40
2018-05-07T11:37:24.666Z,24.50
2018-05-07T11:39:52.200Z,24.10
2018-05-07T11:42:19.725Z,23.10
2018-05-07T11:44:47.241Z,22.30
2018-05-07T11:47:14.790Z,22.20
2018-05-07T11:49:42.297Z,22.00
2018-05-07T11:52:10.658Z,23.90
2018-05-07T11:54:38.200Z,23.90
2018-05-07T11:57:06.533Z,24.20
2018-05-07T11:59:34.058Z,24.20
2018-05-07T12:02:01.584Z,24.30
2018-05-07T12:04:29.101Z,24.50
2018-05-07T12:06:57.431Z,25.00
2018-05-07T12:09:25.042Z,26.00
2018-05-07T12:11:52.718Z,26.00
2018-05-07T12:14:20.261Z,26.00
2018-05-07T12:16:47.777Z,26.60
2018-05-07T12:19:15.294Z,26.00
2018-05-07T12:21:42.907Z,25.70
2018-05-07T12:24:10.492Z,25.10
2018-05-07T12:26:38.795Z,27.50
2018-05-07T12:29:06.318Z,27.50
2018-05-07T12:31:34.669Z,27.90
2018-05-07T12:34:02.893Z,29.10
2018-05-07T12:36:30.413Z,29.10
2018-05-07T12:38:57.972Z,29.20
2018-05-07T12:41:25.524Z,28.50
2018-05-07T12:43:53.049Z,28.80
2018-05-07T12:46:20.679Z,28.90
2018-05-07T12:48:48.201Z,28.40
2018-05-07T12:51:15.733Z,28.50
2018-05-07T12:53:43.273Z,29.00
2018-05-07T12:56:10.829Z,28.50
2018-05-07T12:58:38.366Z,27.90
2018-05-07T13:01:05.936Z,27.40
2018-05-07T13:03:34.234Z,27.00
2018-05-07T13:06:01.792Z,27.00
2018-05-07T13:08:29.354Z,27.30
2018-05-07T13:10:56.911Z,27.80
2018-05-07T13:13:24.436Z,29.00
2018-05-07T13:15:51.953Z,29.70
2018-05-07T13:18:19.470Z,31.70
2018-05-07T13:20:46.997Z,33.20
2018-05-07T13:23:14.554Z,33.60
2018-05-07T13:25:42.125Z,34.70
2018-05-07T13:28:09.631Z,35.40
2018-05-07T13:30:37.130Z,35.50
2018-05-07T13:33:04.658Z,35.30
2018-05-07T13:35:32.272Z,35.60
2018-05-07T13:37:59.784Z,35.50
2018-05-07T13:40:27.394Z,35.90
2018-05-07T13:42:54.898Z,35.80
2018-05-07T13:45:22.401Z,35.30
2018-05-07T13:47:49.930Z,33.40
2018-05-07T13:50:17.451Z,31.30
2018-05-07T13:52:44.999Z,30.40
2018-05-07T13:55:13.298Z,30.10
2018-05-07T13:57:40.836Z,30.10
2018-05-07T14:00:08.371Z,30.90
2018-05-07T14:02:35.931Z,32.10
2018-05-07T14:05:03.489Z,33.60
2018-05-07T14:07:31.008Z,34.90
2018-05-07T14:09:59.197Z,35.50
2018-05-07T14:12:26.714Z,35.90
2018-05-07T14:14:55.015Z,35.60
2018-05-07T14:17:22.518Z,35.50
2018-05-07T14:19:50.123Z,35.70
2018-05-07T14:22:18.394Z,37.10
2018-05-07T14:24:46.797Z,37.10
2018-05-07T14:27:14.312Z,37.10
2018-05-07T14:29:41.837Z,35.90
2018-05-07T14:32:09.452Z,35.50
2018-05-07T14:34:37.715Z,36.60
2018-05-07T14:37:05.233Z,36.60
2018-05-07T14:39:32.746Z,36.80
2018-05-07T14:42:00.305Z,36.90
2018-05-07T14:44:28.613Z,37.40
2018-05-07T14:46:56.896Z,36.60
2018-05-07T14:49:24.471Z,36.60
2018-05-07T14:51:51.969Z,36.10
2018-05-07T14:54:19.475Z,37.40
2018-05-07T14:56:46.996Z,38.00
2018-05-07T14:59:14.506Z,38.00
2018-05-07T15:01:42.057Z,37.50
2018-05-07T15:04:09.585Z,36.50
2018-05-07T15:06:37.098Z,37.70
2018-05-07T15:09:05.391Z,37.70
2018-05-07T15:11:32.899Z,38.30
2018-05-07T15:14:12.449Z,38.70
2018-05-07T15:16:39.966Z,39.00
2018-05-07T15:19:07.488Z,38.90
2018-05-07T15:21:35.030Z,38.70
2018-05-07T15:24:02.547Z,36.30
2018-05-07T15:26:30.324Z,35.50
2018-05-07T15:28:59.746Z,35.70
2018-05-07T15:31:27.472Z,35.50
2018-05-07T15:33:55.270Z,35.80
2018-05-07T15:36:22.999Z,35.60
2018-05-07T15:38:50.479Z,35.50
2018-05-07T15:41:18.918Z,34.60
2018-05-07T15:43:46.532Z,34.50
2018-05-07T15:46:13.977Z,33.80
2018-05-07T15:48:42.731Z,33.10
2018-05-07T15:51:10.267Z,33.10
2018-05-07T15:53:37.830Z,32.90
2018-05-07T15:56:05.463Z,33.20
2018-05-07T15:58:34.389Z,33.30
2018-05-07T16:01:01.884Z,33.30
2018-05-07T16:03:29.607Z,33.10
2018-05-07T16:05:58.049Z,32.90
2018-05-07T16:08:26.360Z,33.80
2018-05-07T16:10:54.178Z,33.70
2018-05-07T16:13:22.579Z,33.70
2018-05-07T16:15:50.121Z,33.60
2018-05-07T16:18:17.663Z,34.10
2018-05-07T16:20:45.414Z,34.40
2018-05-07T16:23:12.918Z,34.30
2018-05-07T16:25:41.258Z,34.90
2018-05-07T16:28:08.780Z,34.90
2018-05-07T16:30:36.292Z,35.00
2018-05-07T16:33:03.802Z,34.10
2018-05-07T16:35:31.310Z,34.30
2018-05-07T16:37:58.908Z,34.50
2018-05-07T16:40:26.446Z,34.60
2018-05-07T16:42:54.010Z,34.70
2018-05-07T16:45:22.385Z,34.30
2018-05-07T16:47:49.894Z,34.30
2018-05-07T16:50:17.454Z,33.60
2018-05-07T16:52:45.012Z,33.60
2018-05-07T16:55:12.542Z,34.20
2018-05-07T16:57:41.002Z,35.30
2018-05-07T17:00:09.303Z,35.40
2018-05-07T17:02:36.824Z,35.40
2018-05-07T17:05:04.403Z,35.60
2018-05-07T17:07:32.964Z,36.80
2018-05-07T17:10:00.472Z,36.10
2018-05-07T17:12:28.270Z,36.30
2018-05-07T17:14:55.829Z,36.00
2018-05-07T17:17:23.406Z,36.10
2018-05-07T17:19:50.914Z,36.40
2018-05-07T17:22:18.490Z,36.30
2018-05-07T17:24:46.040Z,36.80
2018-05-07T17:27:13.592Z,37.20
2018-05-07T17:29:41.873Z,37.60
2018-05-07T17:32:09.494Z,37.60
2018-05-07T17:34:37.150Z,37.40
2018-05-07T17:37:04.681Z,37.50
2018-05-07T17:39:32.330Z,37.60
2018-05-07T17:41:59.874Z,38.10
2018-05-07T17:44:39.250Z,38.60
2018-05-07T17:47:18.479Z,38.90
2018-05-07T17:49:46.037Z,39.20
2018-05-07T17:52:13.629Z,39.50
2018-05-07T17:54:41.338Z,39.60
2018-05-07T17:57:08.818Z,40.20
2018-05-07T17:59:36.364Z,40.00
2018-05-07T18:02:04.856Z,40.30
2018-05-07T18:04:32.424Z,40.70
2018-05-07T18:07:00.129Z,40.90
2018-05-07T18:09:28.525Z,41.50
2018-05-07T18:11:57.055Z,41.20
2018-05-07T18:14:24.716Z,41.60
2018-05-07T18:16:53.064Z,42.40
2018-05-07T18:19:21.325Z,41.90
2018-05-07T18:21:49.633Z,42.70
2018-05-07T18:24:17.258Z,42.60
2018-05-07T18:26:45.561Z,43.10
2018-05-07T18:29:13.236Z,43.00
2018-05-07T18:31:41.054Z,43.30
2018-05-07T18:34:08.539Z,43.50
2018-05-07T18:36:36.088Z,43.70
2018-05-07T18:39:03.624Z,43.80
2018-05-07T18:41:31.187Z,44.20
2018-05-07T18:43:58.977Z,44.00
2018-05-07T18:46:26.542Z,44.30
2018-05-07T18:48:54.992Z,44.50
2018-05-07T18:51:22.544Z,44.50
2018-05-07T18:53:51.287Z,44.70
2018-05-07T18:56:18.910Z,44.90
2018-05-07T18:58:47.311Z,44.90
2018-05-07T19:01:15.690Z,45.20
2018-05-07T19:03:44.006Z,45.30
2018-05-07T19:06:11.635Z,45.30
2018-05-07T19:08:39.919Z,45.70
2018-05-07T19:11:07.441Z,45.60
2018-05-07T19:13:34.967Z,45.70
2018-05-07T19:16:02.491Z,45.80
2018-05-07T19:18:31.864Z,45.90
2018-05-07T19:20:59.388Z,45.90
2018-05-07T19:23:26.902Z,46.00
2018-05-07T19:25:55.190Z,46.40
2018-05-07T19:28:23.517Z,46.50
2018-05-07T19:30:51.049Z,46.50
2018-05-07T19:33:18.724Z,46.70
2018-05-07T19:35:47.083Z,46.70
2018-05-07T19:38:14.606Z,46.90
2018-05-07T19:40:42.871Z,47.10
2018-05-07T19:43:10.480Z,47.20
2018-05-07T19:45:38.083Z,47.30
2018-05-07T19:48:05.763Z,47.50
2018-05-07T19:50:33.283Z,47.80
2018-05-07T19:53:01.106Z,47.80
2018-05-07T19:55:29.418Z,48.20
2018-05-07T19:57:56.963Z,48.20
2018-05-07T20:00:24.456Z,48.40
2018-05-07T20:02:51.966Z,48.80
2018-05-07T20:05:20.321Z,49.10
2018-05-07T20:07:48.837Z,49.20
2018-05-07T20:10:17.224Z,49.20
2018-05-07T20:12:44.757Z,49.50
2018-05-07T20:15:13.060Z,49.40
2018-05-07T20:17:40.626Z,49.40
2018-05-07T20:20:09.003Z,50.00
2018-05-07T20:22:36.614Z,49.90
2018-05-07T20:25:04.665Z,49.90
2018-05-07T20:27:32.260Z,49.80
2018-05-07T20:29:59.776Z,49.70
2018-05-07T20:32:27.313Z,49.70
2018-05-07T20:34:54.845Z,49.80
2018-05-07T20:37:22.374Z,49.60
2018-05-07T20:39:49.892Z,49.70
2018-05-07T20:45:20.736Z,49.80
2018-05-07T20:47:48.325Z,49.80
2018-05-07T20:50:15.856Z,49.70
2018-05-07T20:52:43.425Z,50.00
2018-05-07T20:55:10.970Z,50.10
2018-05-07T20:57:38.479Z,50.30
2018-05-07T21:00:05.988Z,50.50
2018-05-07T21:02:34.331Z,50.40
2018-05-07T21:05:01.979Z,50.30
2018-05-07T21:07:30.342Z,50.20
2018-05-07T21:09:57.864Z,50.20
2018-05-07T21:12:25.370Z,50.30
2018-05-07T21:14:52.895Z,50.40
2018-05-07T21:17:20.453Z,50.50
2018-05-07T21:19:48.139Z,50.60
2018-05-07T21:22:16.416Z,50.70
2018-05-07T21:24:43.945Z,50.70
2018-05-07T21:27:11.478Z,50.70
2018-05-07T21:29:39.032Z,50.70
2018-05-07T21:32:06.549Z,51.50
2018-05-07T21:34:34.229Z,50.90
2018-05-07T21:37:01.771Z,50.90
2018-05-07T21:39:29.414Z,50.90
2018-05-07T21:41:56.964Z,50.90
2018-05-07T21:44:25.311Z,50.90
2018-05-07T21:46:52.853Z,51.00
2018-05-07T21:49:20.374Z,51.00
2018-05-07T21:51:47.974Z,51.20
2018-05-07T21:54:15.535Z,51.50
2018-05-07T21:56:43.145Z,51.30
2018-05-07T21:59:14.667Z,51.70
2018-05-07T22:01:42.461Z,52.00
2018-05-07T22:04:10.049Z,52.30
2018-05-07T22:06:44.580Z,52.40
2018-05-07T22:09:12.238Z,52.40
2018-05-07T22:11:42.377Z,52.50
2018-05-07T22:14:14.736Z,52.50
2018-05-07T22:16:42.456Z,52.40
2018-05-07T22:19:11.559Z,52.50
2018-05-07T22:21:42.203Z,52.40
2018-05-07T22:24:15.522Z,52.60
2018-05-07T22:29:23.071Z,52.60
2018-05-07T22:31:59.514Z,52.70
2018-05-07T22:34:29.004Z,52.60
2018-05-07T22:43:41.915Z,52.80
2018-05-07T22:46:10.431Z,53.10
2018-05-07T22:48:37.888Z,53.50
2018-05-07T22:51:05.397Z,53.50
2018-05-07T22:53:33.795Z,53.80
2018-05-07T22:56:02.166Z,53.90
2018-05-07T22:58:29.716Z,53.80
2018-05-07T23:01:00.157Z,54.00
2018-05-07T23:03:28.463Z,54.10
2018-05-07T23:05:56.060Z,54.10
2018-05-07T23:08:23.558Z,54.20
2018-05-07T23:10:51.106Z,54.30
2018-05-07T23:13:18.630Z,54.30
2018-05-07T23:18:22.794Z,54.40
2018-05-07T23:20:51.785Z,54.60
2018-05-07T23:23:20.182Z,54.70
2018-05-07T23:25:49.378Z,54.80
2018-05-07T23:28:16.915Z,55.00
2018-05-07T23:30:44.433Z,55.00
2018-05-07T23:33:12.002Z,55.10
2018-05-07T23:35:39.572Z,55.10
2018-05-07T23:38:08.249Z,55.30
2018-05-07T23:40:35.989Z,55.30
2018-05-07T23:43:05.080Z,55.70
2018-05-07T23:45:34.447Z,55.80
2018-05-07T23:48:02.337Z,55.70
2018-05-07T23:50:29.869Z,55.80
2018-05-07T23:52:57.433Z,56.10
2018-05-07T23:55:27.138Z,56.10
2018-05-07T23:57:54.669Z,56.20
